sensor_id;sensor_type;location;lat;lon;timestamp;P1;durP1;ratioP1;P2;durP2;ratioP2
35128;SDS011;21301;43.626;10.580;2023-07-13T00:02:24;12.70;;;5.05;;
35128;SDS011;21301;43.626;10.580;2023-07-13T00:04:51;12.00;;;4.45;;
35128;SDS011;21301;43.626;10.580;2023-07-13T00:07:17;12.43;;;5.00;;
35128;SDS011;21301;43.626;10.580;2023-07-13T00:09:46;9.00;;;3.75;;
35128;SDS011;21301;43.626;10.580;2023-07-13T00:12:22;9.40;;;4.40;;
35128;SDS011;21301;43.626;10.580;2023-07-13T00:14:51;12.32;;;4.68;;
35128;SDS011;21301;43.626;10.580;2023-07-13T00:17:16;11.23;;;4.72;;
35128;SDS011;21301;43.626;10.580;2023-07-13T00:19:42;13.90;;;5.40;;
35128;SDS011;21301;43.626;10.580;2023-07-13T00:22:09;9.15;;;4.13;;
35128;SDS011;21301;43.626;10.580;2023-07-13T00:24:35;10.50;;;4.40;;
35128;SDS011;21301;43.626;10.580;2023-07-13T00:27:01;11.60;;;5.28;;
35128;SDS011;21301;43.626;10.580;2023-07-13T00:29:28;10.20;;;3.75;;
35128;SDS011;21301;43.626;10.580;2023-07-13T00:31:55;9.60;;;4.47;;
35128;SDS011;21301;43.626;10.580;2023-07-13T00:34:22;11.10;;;4.97;;
35128;SDS011;21301;43.626;10.580;2023-07-13T00:36:48;12.57;;;4.47;;
35128;SDS011;21301;43.626;10.580;2023-07-13T00:39:14;8.60;;;4.20;;
35128;SDS011;21301;43.626;10.580;2023-07-13T00:41:40;10.05;;;4.13;;
35128;SDS011;21301;43.626;10.580;2023-07-13T00:44:13;10.75;;;5.20;;
35128;SDS011;21301;43.626;10.580;2023-07-13T00:53:22;11.32;;;4.93;;
35128;SDS011;21301;43.626;10.580;2023-07-13T00:55:51;12.00;;;5.18;;
35128;SDS011;21301;43.626;10.580;2023-07-13T00:58:25;16.00;;;5.40;;
35128;SDS011;21301;43.626;10.580;2023-07-13T01:00:53;14.52;;;5.53;;
35128;SDS011;21301;43.626;10.580;2023-07-13T01:07:01;16.98;;;5.35;;
35128;SDS011;21301;43.626;10.580;2023-07-13T01:09:27;14.48;;;5.18;;
35128;SDS011;21301;43.626;10.580;2023-07-13T01:14:23;11.88;;;6.13;;
35128;SDS011;21301;43.626;10.580;2023-07-13T01:16:50;13.75;;;4.57;;
35128;SDS011;21301;43.626;10.580;2023-07-13T01:22:22;13.88;;;5.57;;
35128;SDS011;21301;43.626;10.580;2023-07-13T01:24:52;18.77;;;5.50;;
35128;SDS011;21301;43.626;10.580;2023-07-13T01:27:23;16.65;;;4.95;;
35128;SDS011;21301;43.626;10.580;2023-07-13T01:32:54;15.18;;;5.68;;
35128;SDS011;21301;43.626;10.580;2023-07-13T01:35:20;12.43;;;5.57;;
35128;SDS011;21301;43.626;10.580;2023-07-13T01:37:46;14.30;;;5.50;;
35128;SDS011;21301;43.626;10.580;2023-07-13T01:40:14;11.73;;;5.65;;
35128;SDS011;21301;43.626;10.580;2023-07-13T01:42:40;17.65;;;5.97;;
35128;SDS011;21301;43.626;10.580;2023-07-13T01:45:06;12.55;;;5.65;;
35128;SDS011;21301;43.626;10.580;2023-07-13T01:47:32;13.45;;;5.68;;
35128;SDS011;21301;43.626;10.580;2023-07-13T01:49:58;16.25;;;6.28;;
35128;SDS011;21301;43.626;10.580;2023-07-13T01:52:24;12.88;;;6.22;;
35128;SDS011;21301;43.626;10.580;2023-07-13T01:54:50;12.05;;;5.22;;
35128;SDS011;21301;43.626;10.580;2023-07-13T01:57:16;12.43;;;4.80;;
35128;SDS011;21301;43.626;10.580;2023-07-13T01:59:43;19.40;;;4.68;;
35128;SDS011;21301;43.626;10.580;2023-07-13T02:02:09;12.38;;;6.70;;
35128;SDS011;21301;43.626;10.580;2023-07-13T02:04:36;14.40;;;5.35;;
35128;SDS011;21301;43.626;10.580;2023-07-13T02:07:02;14.02;;;5.60;;
35128;SDS011;21301;43.626;10.580;2023-07-13T02:09:28;12.50;;;5.22;;
35128;SDS011;21301;43.626;10.580;2023-07-13T02:11:54;14.18;;;5.50;;
35128;SDS011;21301;43.626;10.580;2023-07-13T02:14:27;13.30;;;5.35;;
35128;SDS011;21301;43.626;10.580;2023-07-13T02:17:25;12.05;;;5.20;;
35128;SDS011;21301;43.626;10.580;2023-07-13T02:19:53;12.63;;;5.93;;
35128;SDS011;21301;43.626;10.580;2023-07-13T02:22:21;10.63;;;5.15;;
35128;SDS011;21301;43.626;10.580;2023-07-13T02:24:47;8.70;;;4.68;;
35128;SDS011;21301;43.626;10.580;2023-07-13T02:27:17;11.95;;;4.88;;
35128;SDS011;21301;43.626;10.580;2023-07-13T02:29:43;13.98;;;5.13;;
35128;SDS011;21301;43.626;10.580;2023-07-13T02:32:09;11.68;;;4.10;;
35128;SDS011;21301;43.626;10.580;2023-07-13T02:34:35;11.55;;;4.82;;
35128;SDS011;21301;43.626;10.580;2023-07-13T02:37:03;16.63;;;5.18;;
35128;SDS011;21301;43.626;10.580;2023-07-13T02:39:31;9.80;;;5.00;;
35128;SDS011;21301;43.626;10.580;2023-07-13T02:41:58;12.90;;;4.32;;
35128;SDS011;21301;43.626;10.580;2023-07-13T02:44:25;15.48;;;3.97;;
35128;SDS011;21301;43.626;10.580;2023-07-13T02:46:52;9.90;;;4.53;;
35128;SDS011;21301;43.626;10.580;2023-07-13T02:49:19;10.93;;;4.60;;
35128;SDS011;21301;43.626;10.580;2023-07-13T02:51:46;16.85;;;4.72;;
35128;SDS011;21301;43.626;10.580;2023-07-13T02:54:12;9.80;;;5.00;;
35128;SDS011;21301;43.626;10.580;2023-07-13T03:00:03;11.02;;;4.38;;
35128;SDS011;21301;43.626;10.580;2023-07-13T03:02:31;16.50;;;5.30;;
35128;SDS011;21301;43.626;10.580;2023-07-13T03:04:58;14.63;;;4.60;;
35128;SDS011;21301;43.626;10.580;2023-07-13T03:07:24;13.07;;;4.95;;
35128;SDS011;21301;43.626;10.580;2023-07-13T03:09:55;14.50;;;5.10;;
35128;SDS011;21301;43.626;10.580;2023-07-13T03:14:51;11.80;;;4.40;;
35128;SDS011;21301;43.626;10.580;2023-07-13T03:17:18;10.57;;;4.78;;
35128;SDS011;21301;43.626;10.580;2023-07-13T03:19:46;18.08;;;5.35;;
35128;SDS011;21301;43.626;10.580;2023-07-13T03:22:16;10.65;;;4.05;;
35128;SDS011;21301;43.626;10.580;2023-07-13T03:24:45;13.38;;;4.03;;
35128;SDS011;21301;43.626;10.580;2023-07-13T03:27:11;11.70;;;4.43;;
35128;SDS011;21301;43.626;10.580;2023-07-13T03:29:41;16.38;;;4.63;;
35128;SDS011;21301;43.626;10.580;2023-07-13T03:32:07;12.88;;;4.70;;
35128;SDS011;21301;43.626;10.580;2023-07-13T03:34:34;11.40;;;3.75;;
35128;SDS011;21301;43.626;10.580;2023-07-13T03:37:03;13.10;;;4.38;;
35128;SDS011;21301;43.626;10.580;2023-07-13T03:39:30;9.85;;;5.05;;
35128;SDS011;21301;43.626;10.580;2023-07-13T03:41:57;13.07;;;4.97;;
35128;SDS011;21301;43.626;10.580;2023-07-13T03:44:23;12.95;;;4.93;;
35128;SDS011;21301;43.626;10.580;2023-07-13T03:46:54;14.52;;;5.47;;
35128;SDS011;21301;43.626;10.580;2023-07-13T03:49:22;13.48;;;6.47;;
35128;SDS011;21301;43.626;10.580;2023-07-13T03:51:48;14.38;;;6.03;;
35128;SDS011;21301;43.626;10.580;2023-07-13T03:54:15;9.93;;;5.18;;
35128;SDS011;21301;43.626;10.580;2023-07-13T03:56:41;9.82;;;4.00;;
35128;SDS011;21301;43.626;10.580;2023-07-13T03:59:08;13.20;;;4.38;;
35128;SDS011;21301;43.626;10.580;2023-07-13T04:01:34;14.77;;;4.40;;
35128;SDS011;21301;43.626;10.580;2023-07-13T04:04:09;10.37;;;4.33;;
35128;SDS011;21301;43.626;10.580;2023-07-13T04:06:37;12.30;;;4.50;;
35128;SDS011;21301;43.626;10.580;2023-07-13T04:09:03;9.63;;;4.25;;
35128;SDS011;21301;43.626;10.580;2023-07-13T04:11:33;10.10;;;4.70;;
35128;SDS011;21301;43.626;10.580;2023-07-13T04:14:01;9.07;;;4.88;;
35128;SDS011;21301;43.626;10.580;2023-07-13T04:16:27;12.70;;;4.45;;
35128;SDS011;21301;43.626;10.580;2023-07-13T04:18:53;14.68;;;6.05;;
35128;SDS011;21301;43.626;10.580;2023-07-13T04:21:24;11.55;;;5.65;;
35128;SDS011;21301;43.626;10.580;2023-07-13T04:23:52;12.38;;;5.50;;
35128;SDS011;21301;43.626;10.580;2023-07-13T04:26:19;12.02;;;5.55;;
35128;SDS011;21301;43.626;10.580;2023-07-13T04:28:46;13.13;;;5.03;;
35128;SDS011;21301;43.626;10.580;2023-07-13T04:31:13;11.40;;;4.25;;
35128;SDS011;21301;43.626;10.580;2023-07-13T04:33:39;15.82;;;5.00;;
35128;SDS011;21301;43.626;10.580;2023-07-13T04:36:05;13.27;;;4.50;;
35128;SDS011;21301;43.626;10.580;2023-07-13T04:38:34;17.88;;;5.55;;
35128;SDS011;21301;43.626;10.580;2023-07-13T04:41:03;9.77;;;4.75;;
35128;SDS011;21301;43.626;10.580;2023-07-13T04:43:31;10.90;;;4.20;;
35128;SDS011;21301;43.626;10.580;2023-07-13T04:46:02;14.93;;;4.72;;
35128;SDS011;21301;43.626;10.580;2023-07-13T04:48:32;14.70;;;4.43;;
35128;SDS011;21301;43.626;10.580;2023-07-13T04:50:59;18.75;;;4.80;;
35128;SDS011;21301;43.626;10.580;2023-07-13T04:53:27;10.85;;;4.40;;
35128;SDS011;21301;43.626;10.580;2023-07-13T04:55:54;14.82;;;4.15;;
35128;SDS011;21301;43.626;10.580;2023-07-13T04:58:20;17.80;;;4.85;;
35128;SDS011;21301;43.626;10.580;2023-07-13T05:00:46;13.82;;;4.72;;
35128;SDS011;21301;43.626;10.580;2023-07-13T05:03:12;12.32;;;5.07;;
35128;SDS011;21301;43.626;10.580;2023-07-13T05:05:38;10.02;;;4.22;;
35128;SDS011;21301;43.626;10.580;2023-07-13T05:08:04;14.52;;;4.50;;
35128;SDS011;21301;43.626;10.580;2023-07-13T05:10:29;9.65;;;4.20;;
35128;SDS011;21301;43.626;10.580;2023-07-13T05:12:55;18.00;;;4.85;;
35128;SDS011;21301;43.626;10.580;2023-07-13T05:15:21;14.77;;;5.13;;
35128;SDS011;21301;43.626;10.580;2023-07-13T05:17:48;11.77;;;4.07;;
35128;SDS011;21301;43.626;10.580;2023-07-13T05:20:16;12.43;;;4.78;;
35128;SDS011;21301;43.626;10.580;2023-07-13T05:22:43;13.93;;;4.80;;
35128;SDS011;21301;43.626;10.580;2023-07-13T05:25:09;12.00;;;4.25;;
35128;SDS011;21301;43.626;10.580;2023-07-13T05:27:38;14.00;;;4.50;;
35128;SDS011;21301;43.626;10.580;2023-07-13T05:30:04;10.88;;;3.90;;
35128;SDS011;21301;43.626;10.580;2023-07-13T05:32:30;13.43;;;5.05;;
35128;SDS011;21301;43.626;10.580;2023-07-13T05:34:56;12.07;;;4.07;;
35128;SDS011;21301;43.626;10.580;2023-07-13T05:37:22;13.68;;;5.10;;
35128;SDS011;21301;43.626;10.580;2023-07-13T05:39:48;12.80;;;4.75;;
35128;SDS011;21301;43.626;10.580;2023-07-13T05:42:14;9.02;;;4.30;;
35128;SDS011;21301;43.626;10.580;2023-07-13T05:57:34;12.77;;;4.78;;
35128;SDS011;21301;43.626;10.580;2023-07-13T06:00:01;12.35;;;4.28;;
35128;SDS011;21301;43.626;10.580;2023-07-13T06:02:47;12.95;;;3.78;;
35128;SDS011;21301;43.626;10.580;2023-07-13T06:05:14;9.90;;;4.22;;
35128;SDS011;21301;43.626;10.580;2023-07-13T06:07:41;10.18;;;4.55;;
35128;SDS011;21301;43.626;10.580;2023-07-13T06:13:49;9.57;;;4.70;;
35128;SDS011;21301;43.626;10.580;2023-07-13T06:19:55;8.27;;;3.63;;
35128;SDS011;21301;43.626;10.580;2023-07-13T06:22:21;11.10;;;3.60;;
35128;SDS011;21301;43.626;10.580;2023-07-13T06:24:47;11.23;;;4.03;;
35128;SDS011;21301;43.626;10.580;2023-07-13T06:27:13;11.20;;;4.53;;
35128;SDS011;21301;43.626;10.580;2023-07-13T06:29:39;10.75;;;4.30;;
35128;SDS011;21301;43.626;10.580;2023-07-13T06:32:05;7.75;;;3.53;;
35128;SDS011;21301;43.626;10.580;2023-07-13T06:34:33;9.30;;;4.20;;
35128;SDS011;21301;43.626;10.580;2023-07-13T06:43:05;10.27;;;4.25;;
35128;SDS011;21301;43.626;10.580;2023-07-13T06:45:32;15.15;;;4.78;;
35128;SDS011;21301;43.626;10.580;2023-07-13T06:48:05;10.93;;;3.67;;
35128;SDS011;21301;43.626;10.580;2023-07-13T06:50:31;12.93;;;4.28;;
35128;SDS011;21301;43.626;10.580;2023-07-13T06:52:58;7.78;;;3.92;;
35128;SDS011;21301;43.626;10.580;2023-07-13T06:55:24;11.18;;;3.97;;
35128;SDS011;21301;43.626;10.580;2023-07-13T06:57:55;12.85;;;4.68;;
35128;SDS011;21301;43.626;10.580;2023-07-13T07:00:21;10.15;;;4.32;;
35128;SDS011;21301;43.626;10.580;2023-07-13T07:02:47;7.93;;;4.03;;
35128;SDS011;21301;43.626;10.580;2023-07-13T07:11:16;10.45;;;4.30;;
35128;SDS011;21301;43.626;10.580;2023-07-13T07:47:23;14.57;;;4.45;;
35128;SDS011;21301;43.626;10.580;2023-07-13T07:49:49;12.95;;;4.43;;
35128;SDS011;21301;43.626;10.580;2023-07-13T07:52:15;13.52;;;5.20;;
35128;SDS011;21301;43.626;10.580;2023-07-13T08:09:38;18.10;;;5.78;;
35128;SDS011;21301;43.626;10.580;2023-07-13T08:12:05;14.90;;;5.00;;
35128;SDS011;21301;43.626;10.580;2023-07-13T08:14:32;10.43;;;4.20;;
35128;SDS011;21301;43.626;10.580;2023-07-13T08:16:58;12.95;;;5.05;;
35128;SDS011;21301;43.626;10.580;2023-07-13T08:19:24;15.77;;;5.72;;
35128;SDS011;21301;43.626;10.580;2023-07-13T08:21:49;11.45;;;5.32;;
35128;SDS011;21301;43.626;10.580;2023-07-13T08:24:15;16.88;;;5.22;;
35128;SDS011;21301;43.626;10.580;2023-07-13T08:26:45;11.05;;;4.38;;
35128;SDS011;21301;43.626;10.580;2023-07-13T08:29:11;15.88;;;5.45;;
35128;SDS011;21301;43.626;10.580;2023-07-13T08:31:37;14.20;;;5.20;;
35128;SDS011;21301;43.626;10.580;2023-07-13T08:34:03;10.82;;;3.90;;
35128;SDS011;21301;43.626;10.580;2023-07-13T08:36:28;13.77;;;5.30;;
35128;SDS011;21301;43.626;10.580;2023-07-13T08:38:54;10.75;;;5.05;;
35128;SDS011;21301;43.626;10.580;2023-07-13T08:41:21;11.88;;;4.40;;
35128;SDS011;21301;43.626;10.580;2023-07-13T08:43:48;10.77;;;5.47;;
35128;SDS011;21301;43.626;10.580;2023-07-13T08:49:15;14.95;;;4.43;;
35128;SDS011;21301;43.626;10.580;2023-07-13T08:51:49;11.75;;;4.80;;
35128;SDS011;21301;43.626;10.580;2023-07-13T08:54:34;12.98;;;4.97;;
35128;SDS011;21301;43.626;10.580;2023-07-13T08:57:12;10.80;;;5.05;;
35128;SDS011;21301;43.626;10.580;2023-07-13T09:00:18;16.27;;;5.55;;
35128;SDS011;21301;43.626;10.580;2023-07-13T09:02:46;15.73;;;6.60;;
35128;SDS011;21301;43.626;10.580;2023-07-13T09:05:27;12.25;;;5.28;;
35128;SDS011;21301;43.626;10.580;2023-07-13T09:11:10;14.88;;;5.40;;
35128;SDS011;21301;43.626;10.580;2023-07-13T09:17:22;18.67;;;6.47;;
35128;SDS011;21301;43.626;10.580;2023-07-13T09:20:02;26.50;;;7.00;;
35128;SDS011;21301;43.626;10.580;2023-07-13T09:22:39;17.08;;;7.50;;
35128;SDS011;21301;43.626;10.580;2023-07-13T09:34:01;17.17;;;6.47;;
35128;SDS011;21301;43.626;10.580;2023-07-13T09:36:31;23.73;;;6.30;;
35128;SDS011;21301;43.626;10.580;2023-07-13T09:39:03;20.30;;;5.97;;
35128;SDS011;21301;43.626;10.580;2023-07-13T09:44:30;21.38;;;6.45;;
35128;SDS011;21301;43.626;10.580;2023-07-13T09:46:59;24.40;;;7.85;;
35128;SDS011;21301;43.626;10.580;2023-07-13T09:49:28;20.00;;;6.78;;
35128;SDS011;21301;43.626;10.580;2023-07-13T09:52:02;19.88;;;6.40;;
35128;SDS011;21301;43.626;10.580;2023-07-13T09:54:33;24.10;;;6.82;;
35128;SDS011;21301;43.626;10.580;2023-07-13T09:57:02;21.90;;;7.33;;
35128;SDS011;21301;43.626;10.580;2023-07-13T09:59:40;16.13;;;7.18;;
35128;SDS011;21301;43.626;10.580;2023-07-13T10:02:27;21.45;;;7.70;;
35128;SDS011;21301;43.626;10.580;2023-07-13T10:07:44;28.90;;;9.05;;
35128;SDS011;21301;43.626;10.580;2023-07-13T10:10:15;17.27;;;6.57;;
35128;SDS011;21301;43.626;10.580;2023-07-13T10:12:43;22.35;;;7.30;;
35128;SDS011;21301;43.626;10.580;2023-07-13T10:15:17;26.45;;;6.75;;
35128;SDS011;21301;43.626;10.580;2023-07-13T10:17:47;25.13;;;6.95;;
35128;SDS011;21301;43.626;10.580;2023-07-13T10:20:14;23.60;;;7.93;;
35128;SDS011;21301;43.626;10.580;2023-07-13T10:23:00;23.58;;;7.10;;
35128;SDS011;21301;43.626;10.580;2023-07-13T10:25:30;25.52;;;7.72;;
35128;SDS011;21301;43.626;10.580;2023-07-13T10:28:04;27.30;;;6.93;;
35128;SDS011;21301;43.626;10.580;2023-07-13T10:30:41;27.35;;;7.85;;
35128;SDS011;21301;43.626;10.580;2023-07-13T10:33:12;22.73;;;8.07;;
35128;SDS011;21301;43.626;10.580;2023-07-13T10:38:37;27.33;;;8.02;;
35128;SDS011;21301;43.626;10.580;2023-07-13T10:44:48;22.60;;;7.70;;
35128;SDS011;21301;43.626;10.580;2023-07-13T10:47:14;25.35;;;7.13;;
35128;SDS011;21301;43.626;10.580;2023-07-13T10:49:42;21.65;;;6.88;;
35128;SDS011;21301;43.626;10.580;2023-07-13T10:59:01;19.30;;;7.53;;
35128;SDS011;21301;43.626;10.580;2023-07-13T11:04:27;24.60;;;6.88;;
35128;SDS011;21301;43.626;10.580;2023-07-13T11:07:09;21.55;;;6.70;;
35128;SDS011;21301;43.626;10.580;2023-07-13T11:09:43;24.10;;;7.30;;
35128;SDS011;21301;43.626;10.580;2023-07-13T11:20:36;22.70;;;7.53;;
35128;SDS011;21301;43.626;10.580;2023-07-13T11:22:46;27.42;;;7.90;;
35128;SDS011;21301;43.626;10.580;2023-07-13T11:25:33;17.45;;;6.78;;
35128;SDS011;21301;43.626;10.580;2023-07-13T11:30:39;17.20;;;5.93;;
35128;SDS011;21301;43.626;10.580;2023-07-13T11:35:41;23.40;;;7.32;;
35128;SDS011;21301;43.626;10.580;2023-07-13T11:41:06;22.98;;;6.32;;
35128;SDS011;21301;43.626;10.580;2023-07-13T11:44:01;21.40;;;6.80;;
35128;SDS011;21301;43.626;10.580;2023-07-13T11:46:31;21.98;;;6.95;;
35128;SDS011;21301;43.626;10.580;2023-07-13T11:48:57;28.85;;;8.30;;
35128;SDS011;21301;43.626;10.580;2023-07-13T11:56:50;32.10;;;7.07;;
35128;SDS011;21301;43.626;10.580;2023-07-13T11:59:16;24.65;;;7.85;;
35128;SDS011;21301;43.626;10.580;2023-07-13T12:01:44;20.67;;;6.95;;
35128;SDS011;21301;43.626;10.580;2023-07-13T12:04:19;23.07;;;6.70;;
35128;SDS011;21301;43.626;10.580;2023-07-13T12:09:29;28.15;;;7.13;;
35128;SDS011;21301;43.626;10.580;2023-07-13T12:11:56;21.52;;;7.53;;
35128;SDS011;21301;43.626;10.580;2023-07-13T12:14:25;23.67;;;7.68;;
35128;SDS011;21301;43.626;10.580;2023-07-13T12:16:52;26.25;;;7.30;;
35128;SDS011;21301;43.626;10.580;2023-07-13T12:19:23;30.23;;;7.43;;
35128;SDS011;21301;43.626;10.580;2023-07-13T12:21:54;18.98;;;7.30;;
35128;SDS011;21301;43.626;10.580;2023-07-13T12:24:23;27.67;;;7.13;;
35128;SDS011;21301;43.626;10.580;2023-07-13T12:30:39;24.30;;;8.45;;
35128;SDS011;21301;43.626;10.580;2023-07-13T12:33:06;16.58;;;6.60;;
35128;SDS011;21301;43.626;10.580;2023-07-13T12:35:46;25.70;;;6.85;;
35128;SDS011;21301;43.626;10.580;2023-07-13T12:38:13;29.88;;;7.25;;
35128;SDS011;21301;43.626;10.580;2023-07-13T12:40:41;21.02;;;6.30;;
35128;SDS011;21301;43.626;10.580;2023-07-13T12:43:13;22.70;;;7.13;;
35128;SDS011;21301;43.626;10.580;2023-07-13T12:45:39;21.17;;;5.72;;
35128;SDS011;21301;43.626;10.580;2023-07-13T12:48:41;21.65;;;6.80;;
35128;SDS011;21301;43.626;10.580;2023-07-13T12:51:12;27.02;;;6.72;;
35128;SDS011;21301;43.626;10.580;2023-07-13T12:53:42;17.30;;;5.95;;
35128;SDS011;21301;43.626;10.580;2023-07-13T12:56:16;16.15;;;4.13;;
35128;SDS011;21301;43.626;10.580;2023-07-13T12:58:46;24.17;;;6.75;;
35128;SDS011;21301;43.626;10.580;2023-07-13T13:01:19;25.40;;;6.20;;
35128;SDS011;21301;43.626;10.580;2023-07-13T13:03:49;19.50;;;6.15;;
35128;SDS011;21301;43.626;10.580;2023-07-13T13:06:27;16.05;;;5.78;;
35128;SDS011;21301;43.626;10.580;2023-07-13T13:08:58;21.08;;;5.40;;
35128;SDS011;21301;43.626;10.580;2023-07-13T13:11:27;18.55;;;6.05;;
35128;SDS011;21301;43.626;10.580;2023-07-13T13:13:54;21.95;;;6.63;;
35128;SDS011;21301;43.626;10.580;2023-07-13T13:16:24;16.25;;;5.95;;
35128;SDS011;21301;43.626;10.580;2023-07-13T13:19:14;68.70;;;10.25;;
35128;SDS011;21301;43.626;10.580;2023-07-13T13:21:43;18.35;;;5.90;;
35128;SDS011;21301;43.626;10.580;2023-07-13T13:24:17;22.85;;;5.90;;
35128;SDS011;21301;43.626;10.580;2023-07-13T13:26:45;23.05;;;7.28;;
35128;SDS011;21301;43.626;10.580;2023-07-13T13:29:13;20.38;;;6.03;;
35128;SDS011;21301;43.626;10.580;2023-07-13T13:31:43;22.08;;;6.07;;
35128;SDS011;21301;43.626;10.580;2023-07-13T13:34:13;34.20;;;7.85;;
35128;SDS011;21301;43.626;10.580;2023-07-13T13:40:34;19.70;;;7.32;;
35128;SDS011;21301;43.626;10.580;2023-07-13T13:43:00;16.17;;;5.78;;
35128;SDS011;21301;43.626;10.580;2023-07-13T13:45:27;38.00;;;6.72;;
35128;SDS011;21301;43.626;10.580;2023-07-13T13:47:53;31.58;;;5.85;;
35128;SDS011;21301;43.626;10.580;2023-07-13T13:50:20;26.70;;;5.53;;
35128;SDS011;21301;43.626;10.580;2023-07-13T13:52:49;19.60;;;5.40;;
35128;SDS011;21301;43.626;10.580;2023-07-13T13:55:19;28.13;;;6.80;;
35128;SDS011;21301;43.626;10.580;2023-07-13T14:00:39;24.17;;;6.18;;
35128;SDS011;21301;43.626;10.580;2023-07-13T14:03:15;33.28;;;8.00;;
35128;SDS011;21301;43.626;10.580;2023-07-13T14:05:43;25.25;;;6.30;;
35128;SDS011;21301;43.626;10.580;2023-07-13T14:08:17;21.08;;;6.20;;
35128;SDS011;21301;43.626;10.580;2023-07-13T14:10:46;34.33;;;7.25;;
35128;SDS011;21301;43.626;10.580;2023-07-13T14:13:18;19.05;;;6.90;;
35128;SDS011;21301;43.626;10.580;2023-07-13T14:16:41;28.38;;;5.88;;
35128;SDS011;21301;43.626;10.580;2023-07-13T14:19:09;36.00;;;7.18;;
35128;SDS011;21301;43.626;10.580;2023-07-13T14:21:37;23.77;;;5.65;;
35128;SDS011;21301;43.626;10.580;2023-07-13T14:24:03;25.08;;;6.68;;
35128;SDS011;21301;43.626;10.580;2023-07-13T14:26:30;20.20;;;6.22;;
35128;SDS011;21301;43.626;10.580;2023-07-13T14:29:01;24.33;;;6.78;;
35128;SDS011;21301;43.626;10.580;2023-07-13T14:31:38;19.83;;;6.35;;
35128;SDS011;21301;43.626;10.580;2023-07-13T14:34:04;28.25;;;6.45;;
35128;SDS011;21301;43.626;10.580;2023-07-13T14:39:52;23.77;;;6.15;;
35128;SDS011;21301;43.626;10.580;2023-07-13T14:42:30;18.48;;;5.93;;
35128;SDS011;21301;43.626;10.580;2023-07-13T14:44:56;23.38;;;5.88;;
35128;SDS011;21301;43.626;10.580;2023-07-13T14:47:22;20.77;;;6.32;;
35128;SDS011;21301;43.626;10.580;2023-07-13T14:49:48;26.80;;;7.07;;
35128;SDS011;21301;43.626;10.580;2023-07-13T14:57:43;21.02;;;5.80;;
35128;SDS011;21301;43.626;10.580;2023-07-13T15:00:14;18.48;;;5.80;;
35128;SDS011;21301;43.626;10.580;2023-07-13T15:02:50;20.80;;;6.45;;
35128;SDS011;21301;43.626;10.580;2023-07-13T15:05:26;21.85;;;6.63;;
35128;SDS011;21301;43.626;10.580;2023-07-13T15:07:57;15.15;;;5.40;;
35128;SDS011;21301;43.626;10.580;2023-07-13T15:10:26;24.90;;;5.60;;
35128;SDS011;21301;43.626;10.580;2023-07-13T15:13:12;19.65;;;6.20;;
35128;SDS011;21301;43.626;10.580;2023-07-13T15:15:46;16.65;;;6.15;;
35128;SDS011;21301;43.626;10.580;2023-07-13T15:18:15;25.50;;;6.30;;
35128;SDS011;21301;43.626;10.580;2023-07-13T15:20:44;19.38;;;6.75;;
35128;SDS011;21301;43.626;10.580;2023-07-13T15:23:10;23.85;;;6.78;;
35128;SDS011;21301;43.626;10.580;2023-07-13T15:25:37;19.17;;;6.78;;
35128;SDS011;21301;43.626;10.580;2023-07-13T15:28:03;14.95;;;4.78;;
35128;SDS011;21301;43.626;10.580;2023-07-13T15:30:30;22.52;;;6.05;;
35128;SDS011;21301;43.626;10.580;2023-07-13T15:33:00;16.58;;;5.57;;
35128;SDS011;21301;43.626;10.580;2023-07-13T15:35:45;23.67;;;6.45;;
35128;SDS011;21301;43.626;10.580;2023-07-13T15:38:17;21.33;;;5.50;;
35128;SDS011;21301;43.626;10.580;2023-07-13T15:40:46;24.70;;;6.50;;
35128;SDS011;21301;43.626;10.580;2023-07-13T15:43:15;21.38;;;6.30;;
35128;SDS011;21301;43.626;10.580;2023-07-13T15:45:42;18.25;;;6.43;;
35128;SDS011;21301;43.626;10.580;2023-07-13T15:48:17;31.48;;;7.43;;
35128;SDS011;21301;43.626;10.580;2023-07-13T15:50:49;15.85;;;6.00;;
35128;SDS011;21301;43.626;10.580;2023-07-13T15:53:19;22.38;;;6.25;;
35128;SDS011;21301;43.626;10.580;2023-07-13T15:55:48;22.85;;;6.18;;
35128;SDS011;21301;43.626;10.580;2023-07-13T15:58:14;21.05;;;6.05;;
35128;SDS011;21301;43.626;10.580;2023-07-13T16:00:40;17.42;;;6.18;;
35128;SDS011;21301;43.626;10.580;2023-07-13T16:03:10;14.90;;;5.28;;
35128;SDS011;21301;43.626;10.580;2023-07-13T16:05:39;24.70;;;7.07;;
35128;SDS011;21301;43.626;10.580;2023-07-13T16:08:05;19.33;;;5.82;;
35128;SDS011;21301;43.626;10.580;2023-07-13T16:10:39;25.00;;;6.28;;
35128;SDS011;21301;43.626;10.580;2023-07-13T16:13:07;19.85;;;5.22;;
35128;SDS011;21301;43.626;10.580;2023-07-13T16:15:39;24.77;;;5.97;;
35128;SDS011;21301;43.626;10.580;2023-07-13T16:18:10;16.33;;;5.47;;
35128;SDS011;21301;43.626;10.580;2023-07-13T16:20:45;22.33;;;5.90;;
35128;SDS011;21301;43.626;10.580;2023-07-13T16:23:13;20.17;;;5.40;;
35128;SDS011;21301;43.626;10.580;2023-07-13T16:25:40;15.93;;;5.18;;
35128;SDS011;21301;43.626;10.580;2023-07-13T16:28:08;16.80;;;5.93;;
35128;SDS011;21301;43.626;10.580;2023-07-13T16:30:35;28.13;;;7.50;;
35128;SDS011;21301;43.626;10.580;2023-07-13T16:33:01;19.98;;;6.43;;
35128;SDS011;21301;43.626;10.580;2023-07-13T16:35:34;24.25;;;5.63;;
35128;SDS011;21301;43.626;10.580;2023-07-13T16:38:36;15.60;;;5.83;;
35128;SDS011;21301;43.626;10.580;2023-07-13T16:40:56;23.27;;;6.75;;
35128;SDS011;21301;43.626;10.580;2023-07-13T16:43:22;24.13;;;6.03;;
35128;SDS011;21301;43.626;10.580;2023-07-13T16:45:48;15.73;;;5.55;;
35128;SDS011;21301;43.626;10.580;2023-07-13T16:48:20;21.00;;;5.95;;
35128;SDS011;21301;43.626;10.580;2023-07-13T16:50:52;17.30;;;6.13;;
35128;SDS011;21301;43.626;10.580;2023-07-13T16:56:29;16.00;;;6.38;;
35128;SDS011;21301;43.626;10.580;2023-07-13T16:58:55;21.90;;;7.10;;
35128;SDS011;21301;43.626;10.580;2023-07-13T17:01:39;17.73;;;5.57;;
35128;SDS011;21301;43.626;10.580;2023-07-13T17:04:08;24.23;;;6.55;;
35128;SDS011;21301;43.626;10.580;2023-07-13T17:06:37;18.83;;;6.80;;
35128;SDS011;21301;43.626;10.580;2023-07-13T17:09:07;20.85;;;7.20;;
35128;SDS011;21301;43.626;10.580;2023-07-13T17:11:39;15.20;;;6.68;;
35128;SDS011;21301;43.626;10.580;2023-07-13T17:14:11;23.02;;;6.10;;
35128;SDS011;21301;43.626;10.580;2023-07-13T17:16:40;14.32;;;5.93;;
35128;SDS011;21301;43.626;10.580;2023-07-13T17:19:10;16.98;;;7.15;;
35128;SDS011;21301;43.626;10.580;2023-07-13T17:21:37;24.90;;;8.25;;
35128;SDS011;21301;43.626;10.580;2023-07-13T17:24:08;17.90;;;7.00;;
35128;SDS011;21301;43.626;10.580;2023-07-13T17:26:44;17.88;;;6.38;;
35128;SDS011;21301;43.626;10.580;2023-07-13T17:29:13;22.63;;;6.85;;
35128;SDS011;21301;43.626;10.580;2023-07-13T17:31:41;17.80;;;6.18;;
35128;SDS011;21301;43.626;10.580;2023-07-13T17:34:15;19.58;;;6.57;;
35128;SDS011;21301;43.626;10.580;2023-07-13T17:36:47;20.98;;;8.02;;
35128;SDS011;21301;43.626;10.580;2023-07-13T17:39:14;25.67;;;7.10;;
35128;SDS011;21301;43.626;10.580;2023-07-13T17:41:48;17.63;;;7.22;;
35128;SDS011;21301;43.626;10.580;2023-07-13T17:44:15;26.77;;;7.13;;
35128;SDS011;21301;43.626;10.580;2023-07-13T17:46:41;23.67;;;8.45;;
35128;SDS011;21301;43.626;10.580;2023-07-13T17:49:27;20.00;;;6.82;;
35128;SDS011;21301;43.626;10.580;2023-07-13T17:51:59;18.65;;;7.28;;